Terminal Aerodrome Forecast
Issued by NWS

Home | Current Version | Previous Version | Text Only | Print | Product List | Glossary On
Versions: 1 2 3 4 5 6 7 8 9 10 11 12 13 14 15 16 17 18 19 20 21 22 23 24 25 26 27 28 29 30
000
FTUS41 KOKX 222200 AAC
TAFHPN
TAF AMD
KHPN 222209Z 2222/2318 35017G25KT 4SM -SHRA BR BKN015 OVC025
      TEMPO 2222/2302 2SM RA BR BKN010
     FM230600 34020G28KT 4SM -RA BR BKN008
     FM231500 33020G28KT 6SM BR VCSH BKN015
      AMD NOT SKED=

USA.gov is the U.S. government's official web portal to all federal, state and local government web resources and services.